Time;durP1;ratioP1;P1;durP2;ratioP2;P2;SDS_P1;SDS_P2;PMS_P1;PMS_P2;Temp;Humidity;BMP_temperature;BMP_pressure;BME280_temperature;BME280_humidity;BME280_pressure;Samples;Min_cycle;Max_cycle;Signal;HPM_P1;HPM_P2
2021/06/03 00:00:34;;;;;;;5.50;2.90;;;22.20;40.10;;;;;;5054728;28;20028;-35
2021/06/03 00:03:00;;;;;;;3.28;2.97;;;22.10;40.10;;;;;;5054865;28;20036;-35
2021/06/03 00:05:36;;;;;;;7.85;2.92;;;22.00;40.50;;;;;;5053362;28;20054;-36
2021/06/03 00:08:01;;;;;;;3.90;2.50;;;21.80;40.80;;;;;;5054494;28;20507;-35
2021/06/03 00:10:31;;;;;;;6.40;2.90;;;21.80;41.20;;;;;;5054713;28;20056;-35
2021/06/03 00:12:57;;;;;;;3.97;2.70;;;21.70;41.70;;;;;;5054145;28;20044;-35
2021/06/03 00:15:23;;;;;;;3.30;2.25;;;21.70;42.00;;;;;;5054322;28;20021;-35
2021/06/03 00:17:49;;;;;;;4.18;2.53;;;21.70;42.10;;;;;;5053701;28;20048;-36
2021/06/03 00:20:18;;;;;;;8.30;2.40;;;21.70;42.00;;;;;;5054505;28;20033;-35
2021/06/03 00:22:44;;;;;;;2.42;2.20;;;21.70;41.90;;;;;;5054113;28;20104;-35
2021/06/03 00:25:10;;;;;;;3.53;3.20;;;21.80;41.90;;;;;;5054372;28;20079;-34
2021/06/03 00:27:36;;;;;;;5.82;2.70;;;21.80;41.80;;;;;;5054281;28;20036;-35
2021/06/03 00:30:04;;;;;;;4.57;2.50;;;21.80;41.80;;;;;;5054297;28;20028;-35
2021/06/03 00:32:30;;;;;;;5.65;2.67;;;21.80;41.80;;;;;;5054009;28;20052;-35
2021/06/03 00:34:56;;;;;;;4.32;2.65;;;21.80;42.70;;;;;;5054328;28;20100;-34
2021/06/03 00:37:22;;;;;;;5.18;2.70;;;21.70;43.00;;;;;;5052725;28;20033;-35
2021/06/03 00:39:47;;;;;;;4.82;3.40;;;21.60;43.70;;;;;;5053884;28;20076;-35
2021/06/03 00:42:13;;;;;;;4.40;2.42;;;21.60;44.30;;;;;;5054059;28;20393;-34
2021/06/03 00:44:39;;;;;;;4.70;3.13;;;21.40;45.00;;;;;;5053801;28;20021;-35
2021/06/03 00:47:04;;;;;;;2.75;2.55;;;21.60;44.80;;;;;;5054013;28;20025;-35
2021/06/03 00:49:30;;;;;;;5.63;2.95;;;21.60;45.40;;;;;;5053655;28;20047;-35
2021/06/03 00:51:56;;;;;;;3.47;2.58;;;21.50;45.80;;;;;;5053809;28;20406;-35
2021/06/03 00:54:22;;;;;;;5.18;2.55;;;21.40;46.40;;;;;;5053549;28;20021;-35
2021/06/03 00:56:48;;;;;;;3.75;2.72;;;21.30;46.90;;;;;;5053937;28;20039;-34
2021/06/03 00:59:14;;;;;;;3.58;2.70;;;21.40;47.20;;;;;;5053529;28;20047;-35
2021/06/03 01:01:39;;;;;;;5.90;2.65;;;21.50;47.30;;;;;;5053293;28;20032;-35
2021/06/03 01:04:07;;;;;;;9.25;3.58;;;21.50;47.70;;;;;;5053231;28;20025;-35
2021/06/03 01:06:33;;;;;;;4.00;2.65;;;21.40;48.20;;;;;;5053175;28;20035;-35
2021/06/03 01:09:15;;;;;;;5.07;3.13;;;21.30;48.90;;;;;;5052351;28;20120;-35
2021/06/03 01:11:53;;;;;;;3.40;2.20;;;21.30;49.20;;;;;;5035892;28;20028;-35
2021/06/03 01:14:27;;;;;;;5.38;2.78;;;21.10;50.00;;;;;;5035142;28;20500;-36
2021/06/03 01:16:55;;;;;;;6.55;2.92;;;21.00;50.70;;;;;;5053141;28;20029;-35
2021/06/03 01:19:48;;;;;;;6.22;2.72;;;21.00;51.10;;;;;;5053305;28;20025;-36
2021/06/03 01:22:29;;;;;;;5.88;3.00;;;20.80;51.70;;;;;;5052692;28;20025;-35
2021/06/03 01:24:58;;;;;;;3.45;3.10;;;20.90;52.00;;;;;;5051798;28;20053;-35
2021/06/03 01:27:27;;;;;;;5.03;2.90;;;21.10;51.70;;;;;;5052818;28;20028;-36
2021/06/03 01:30:01;;;;;;;4.68;2.72;;;21.00;52.10;;;;;;5053235;28;20083;-35
2021/06/03 01:32:28;;;;;;;5.57;3.17;;;20.80;53.00;;;;;;5051310;28;20463;-35
2021/06/03 01:34:55;;;;;;;7.97;3.17;;;20.70;53.50;;;;;;5053321;28;20017;-35
2021/06/03 01:37:21;;;;;;;5.05;2.92;;;20.80;53.40;;;;;;5052946;28;20100;-36
2021/06/03 01:39:48;;;;;;;3.13;2.75;;;20.80;53.40;;;;;;5053550;28;20051;-35
2021/06/03 01:42:15;;;;;;;5.57;2.65;;;20.80;54.10;;;;;;5053510;28;20029;-36
2021/06/03 01:44:41;;;;;;;4.30;3.05;;;20.70;54.60;;;;;;5052922;28;20044;-34
2021/06/03 01:47:08;;;;;;;4.97;3.40;;;20.50;55.00;;;;;;5052999;28;20075;-35
2021/06/03 01:49:34;;;;;;;3.17;2.42;;;20.50;55.30;;;;;;5053177;28;20468;-35
2021/06/03 01:52:03;;;;;;;6.32;3.00;;;20.50;55.40;;;;;;5052795;28;20094;-35
2021/06/03 01:54:29;;;;;;;5.32;3.20;;;20.50;55.70;;;;;;5053074;28;20013;-35
2021/06/03 01:56:55;;;;;;;3.35;2.50;;;20.40;56.10;;;;;;5052849;28;20036;-35
2021/06/03 01:59:21;;;;;;;4.63;3.15;;;20.40;56.40;;;;;;5051599;28;20432;-35
2021/06/03 02:01:47;;;;;;;5.80;2.88;;;20.50;56.30;;;;;;5051908;28;20025;-35
2021/06/03 02:04:13;;;;;;;2.63;2.40;;;20.40;56.50;;;;;;5052842;28;20553;-35
2021/06/03 02:06:43;;;;;;;5.82;3.08;;;20.40;57.10;;;;;;5053055;28;20102;-35
2021/06/03 02:09:10;;;;;;;3.88;2.67;;;20.30;57.20;;;;;;5052780;28;20036;-34
2021/06/03 02:11:40;;;;;;;10.32;3.33;;;20.30;57.50;;;;;;5052702;28;20025;-34
2021/06/03 02:14:10;;;;;;;3.00;2.70;;;20.30;57.70;;;;;;5052613;28;20022;-35
2021/06/03 02:16:49;;;;;;;4.40;2.77;;;20.30;57.90;;;;;;5051795;28;20040;-36
2021/06/03 02:19:19;;;;;;;6.25;2.88;;;20.30;58.10;;;;;;5052542;28;20049;-35
2021/06/03 02:21:47;;;;;;;3.47;2.63;;;20.30;58.30;;;;;;5052995;28;20013;-35
2021/06/03 02:24:13;;;;;;;5.93;2.88;;;20.20;58.50;;;;;;5052663;28;20093;-35
2021/06/03 02:26:41;;;;;;;5.40;2.80;;;20.20;58.90;;;;;;5051230;28;20116;-34
2021/06/03 02:29:08;;;;;;;3.85;2.65;;;20.10;59.20;;;;;;5052649;28;20075;-35
2021/06/03 02:31:34;;;;;;;7.35;3.22;;;20.10;59.50;;;;;;5051087;28;20033;-36
2021/06/03 02:34:00;;;;;;;3.20;2.90;;;20.00;59.70;;;;;;5052298;28;20029;-36
2021/06/03 02:36:29;;;;;;;4.15;2.70;;;20.00;59.90;;;;;;5052859;28;20051;-35
2021/06/03 02:38:55;;;;;;;9.30;3.37;;;19.90;60.00;;;;;;5052611;28;20100;-35
2021/06/03 02:41:22;;;;;;;5.72;3.22;;;20.00;60.20;;;;;;5055136;28;20053;-36
2021/06/03 02:43:48;;;;;;;5.25;3.20;;;20.10;60.10;;;;;;5054549;28;20028;-35
2021/06/03 02:46:16;;;;;;;4.57;3.38;;;20.10;60.60;;;;;;5055889;28;20492;-35
2021/06/03 02:48:42;;;;;;;5.00;2.67;;;19.90;60.50;;;;;;5055804;28;20033;-35
2021/06/03 02:51:08;;;;;;;4.10;3.10;;;19.90;60.90;;;;;;5055613;28;20329;-35
2021/06/03 02:53:33;;;;;;;5.80;2.80;;;19.80;61.30;;;;;;5055501;28;20025;-34
2021/06/03 02:55:59;;;;;;;4.05;3.20;;;19.70;61.80;;;;;;5056021;28;20017;-35
2021/06/03 02:58:25;;;;;;;3.55;3.00;;;19.70;61.90;;;;;;5054782;28;20017;-36
2021/06/03 03:00:51;;;;;;;4.30;3.17;;;19.70;62.20;;;;;;5055520;28;20025;-35
2021/06/03 03:03:18;;;;;;;7.55;3.03;;;19.80;62.30;;;;;;5054942;28;20457;-35
2021/06/03 03:05:45;;;;;;;4.05;3.08;;;19.70;62.70;;;;;;5055458;28;20028;-35
2021/06/03 03:08:12;;;;;;;6.05;3.35;;;19.60;62.80;;;;;;5055576;28;20063;-35
2021/06/03 03:10:41;;;;;;;4.93;3.28;;;19.60;62.90;;;;;;5055454;28;20028;-35
2021/06/03 03:13:08;;;;;;;4.25;3.30;;;19.60;63.20;;;;;;5055517;28;20086;-36
2021/06/03 03:15:36;;;;;;;4.80;3.92;;;19.60;63.20;;;;;;5055254;28;20017;-35
2021/06/03 03:18:02;;;;;;;4.88;3.53;;;19.70;63.40;;;;;;5055308;28;20190;-36
2021/06/03 03:20:29;;;;;;;7.15;3.65;;;19.70;63.50;;;;;;5055229;28;20036;-35
2021/06/03 03:22:56;;;;;;;5.47;3.72;;;19.80;63.00;;;;;;5055116;28;20114;-35
2021/06/03 03:25:23;;;;;;;5.97;3.35;;;19.80;63.30;;;;;;5055102;28;20044;-35
2021/06/03 03:27:51;;;;;;;7.05;3.83;;;19.70;63.30;;;;;;5055058;28;20021;-36
2021/06/03 03:30:19;;;;;;;4.47;3.33;;;19.50;63.90;;;;;;5053698;28;20065;-35
2021/06/03 03:32:45;;;;;;;6.18;3.40;;;19.40;64.20;;;;;;5054767;28;20491;-35
2021/06/03 03:35:11;;;;;;;3.70;3.10;;;19.40;64.10;;;;;;5054903;28;20025;-35
2021/06/03 03:37:38;;;;;;;5.20;3.75;;;19.50;64.40;;;;;;5055212;28;20116;-36
2021/06/03 03:40:06;;;;;;;8.32;3.85;;;19.50;64.40;;;;;;5053661;28;20460;-35
2021/06/03 03:42:32;;;;;;;6.57;3.80;;;19.60;64.60;;;;;;5054761;28;20033;-35
2021/06/03 03:44:58;;;;;;;5.22;3.70;;;19.40;65.00;;;;;;5055300;28;20373;-35
2021/06/03 03:47:24;;;;;;;4.45;3.70;;;19.40;65.00;;;;;;5053535;28;20031;-34
2021/06/03 03:49:49;;;;;;;4.65;3.10;;;19.40;65.30;;;;;;5054614;28;20358;-34
2021/06/03 03:52:15;;;;;;;7.43;3.88;;;19.30;65.60;;;;;;5055238;28;20419;-36
2021/06/03 03:54:41;;;;;;;7.82;3.88;;;19.40;65.70;;;;;;5054599;28;20094;-36
2021/06/03 03:57:07;;;;;;;5.97;3.70;;;19.30;65.80;;;;;;5054590;28;20044;-34
2021/06/03 03:59:33;;;;;;;5.97;3.58;;;19.30;66.00;;;;;;5054583;28;20515;-35
2021/06/03 04:01:58;;;;;;;6.65;3.88;;;19.30;66.30;;;;;;5053269;28;20021;-37
2021/06/03 04:04:24;;;;;;;4.18;3.55;;;19.30;66.30;;;;;;5054774;28;20545;-34
2021/06/03 04:06:51;;;;;;;11.73;4.40;;;19.30;66.70;;;;;;5054468;28;20025;-35
2021/06/03 04:09:17;;;;;;;4.05;3.72;;;19.30;66.90;;;;;;5054758;28;20032;-35
2021/06/03 04:11:42;;;;;;;7.18;3.85;;;19.30;66.90;;;;;;5054608;28;20397;-35
2021/06/03 04:14:08;;;;;;;3.63;3.13;;;19.40;66.80;;;;;;5054359;28;20029;-34
2021/06/03 04:16:34;;;;;;;5.28;3.47;;;19.40;66.20;;;;;;5054061;28;20021;-34
2021/06/03 04:19:00;;;;;;;5.15;3.70;;;19.40;66.30;;;;;;5054143;28;20032;-35
2021/06/03 04:21:26;;;;;;;5.55;3.50;;;19.40;66.20;;;;;;5054206;28;20055;-35
2021/06/03 04:23:52;;;;;;;6.65;4.53;;;19.40;66.40;;;;;;5052797;28;20033;-35
2021/06/03 04:26:18;;;;;;;6.78;4.15;;;19.50;66.30;;;;;;5053966;28;20036;-34
2021/06/03 04:28:43;;;;;;;7.43;3.70;;;19.50;66.00;;;;;;5054316;28;20025;-35
2021/06/03 04:31:10;;;;;;;11.02;3.88;;;19.50;65.90;;;;;;5054132;28;20107;-35
2021/06/03 04:33:36;;;;;;;10.98;4.43;;;19.70;65.40;;;;;;5052428;28;20068;-36
2021/06/03 04:36:02;;;;;;;6.65;4.72;;;19.90;64.40;;;;;;5054023;28;20029;-35
2021/06/03 04:38:28;;;;;;;5.75;3.90;;;20.00;64.10;;;;;;5053609;28;20495;-35
2021/06/03 04:40:54;;;;;;;6.90;4.15;;;20.00;64.40;;;;;;5053836;28;20204;-35
2021/06/03 04:43:20;;;;;;;6.95;3.40;;;20.10;64.10;;;;;;5052390;28;20139;-35
2021/06/03 04:45:47;;;;;;;5.38;3.55;;;19.90;64.40;;;;;;5053760;28;20029;-35
2021/06/03 04:48:13;;;;;;;12.60;4.30;;;20.10;63.80;;;;;;5052368;28;20396;-35
2021/06/03 04:50:39;;;;;;;6.22;3.13;;;19.90;64.30;;;;;;5052173;28;20175;-35
2021/06/03 04:53:05;;;;;;;3.58;3.03;;;20.20;63.40;;;;;;5053441;28;20029;-34
2021/06/03 04:55:31;;;;;;;4.88;2.72;;;20.30;62.80;;;;;;5053908;28;20025;-34
2021/06/03 04:57:58;;;;;;;3.85;2.97;;;20.30;62.80;;;;;;5052180;28;20492;-35
2021/06/03 05:00:25;;;;;;;8.85;4.22;;;20.20;63.10;;;;;;5053307;28;20465;-35
2021/06/03 05:02:51;;;;;;;5.30;2.95;;;20.30;62.70;;;;;;5051989;28;20036;-35
2021/06/03 05:05:17;;;;;;;3.88;2.83;;;20.40;62.50;;;;;;5053748;28;20032;-35
2021/06/03 05:07:44;;;;;;;3.40;2.80;;;20.40;62.40;;;;;;5053604;28;20107;-35
2021/06/03 05:10:10;;;;;;;4.15;3.13;;;20.40;62.40;;;;;;5053780;28;20094;-35
2021/06/03 05:12:37;;;;;;;5.03;3.28;;;20.40;62.70;;;;;;5053257;28;20104;-35
2021/06/03 05:15:06;;;;;;;5.03;3.25;;;20.30;63.20;;;;;;5053187;28;20385;-35
2021/06/03 05:17:33;;;;;;;7.32;3.80;;;20.50;62.60;;;;;;5053048;28;20033;-34
2021/06/03 05:19:59;;;;;;;5.10;3.20;;;20.60;62.60;;;;;;5052277;28;20075;-34
2021/06/03 05:22:25;;;;;;;5.28;3.28;;;20.50;62.90;;;;;;5051827;28;20021;-35
2021/06/03 05:24:51;;;;;;;4.15;3.08;;;20.40;63.70;;;;;;5053071;28;20428;-34
2021/06/03 05:27:16;;;;;;;5.55;3.35;;;20.30;64.20;;;;;;5053169;28;20025;-36
2021/06/03 05:29:42;;;;;;;5.32;3.42;;;20.40;63.40;;;;;;5051783;28;20032;-35
2021/06/03 05:32:07;;;;;;;5.57;3.25;;;20.50;63.60;;;;;;5052681;28;20041;-35
2021/06/03 05:34:33;;;;;;;5.03;3.28;;;20.70;62.90;;;;;;5053176;28;20485;-36
2021/06/03 05:36:59;;;;;;;4.60;3.38;;;20.80;62.40;;;;;;5053510;28;20567;-36
2021/06/03 05:39:25;;;;;;;3.85;3.17;;;21.00;62.10;;;;;;5053304;28;20025;-35
2021/06/03 05:41:51;;;;;;;4.18;2.80;;;21.00;61.50;;;;;;5053028;28;20056;-35
2021/06/03 05:44:17;;;;;;;6.00;2.83;;;21.10;61.30;;;;;;5053415;28;20040;-35
2021/06/03 05:46:43;;;;;;;5.15;3.17;;;21.00;61.80;;;;;;5052911;28;20104;-34
2021/06/03 05:49:10;;;;;;;3.03;2.70;;;21.30;60.80;;;;;;5053153;28;20039;-34
2021/06/03 05:51:39;;;;;;;8.07;3.22;;;21.30;60.90;;;;;;5053102;28;20108;-35
2021/06/03 05:54:06;;;;;;;3.80;2.30;;;21.10;61.20;;;;;;5052942;28;20040;-35
2021/06/03 05:56:32;;;;;;;3.85;3.10;;;21.00;61.70;;;;;;5051544;28;20133;-35
2021/06/03 05:58:58;;;;;;;4.03;2.47;;;21.20;61.40;;;;;;5052749;28;20025;-40
2021/06/03 06:01:25;;;;;;;6.25;2.75;;;21.10;61.80;;;;;;5052655;28;20028;-37
2021/06/03 06:04:09;;;;;;;5.28;3.17;;;21.20;61.90;;;;;;5052659;28;20020;-35
2021/06/03 06:06:34;;;;;;;4.20;3.25;;;21.30;61.70;;;;;;5053019;28;20029;-36
2021/06/03 06:09:04;;;;;;;4.78;2.53;;;21.40;61.50;;;;;;5052758;28;20098;-36
2021/06/03 06:11:33;;;;;;;4.90;3.08;;;21.60;61.10;;;;;;5052968;28;20032;-35
2021/06/03 06:13:59;;;;;;;3.15;2.85;;;21.30;62.10;;;;;;5051249;28;20492;-34
2021/06/03 06:16:25;;;;;;;3.25;2.55;;;21.40;62.00;;;;;;5055843;28;20092;-35
2021/06/03 06:18:51;;;;;;;3.60;2.53;;;21.40;62.40;;;;;;5055222;28;20021;-35
2021/06/03 06:21:18;;;;;;;3.50;2.50;;;21.60;61.90;;;;;;5056371;28;20048;-35
2021/06/03 06:23:45;;;;;;;3.28;2.22;;;21.90;60.90;;;;;;5055108;28;20021;-35
2021/06/03 06:26:11;;;;;;;6.10;2.30;;;22.30;59.50;;;;;;5055132;28;20100;-35
2021/06/03 06:28:37;;;;;;;5.75;3.33;;;22.50;59.30;;;;;;5056301;28;20028;-35
2021/06/03 06:31:04;;;;;;;4.78;2.78;;;22.60;59.20;;;;;;5056476;28;20028;-35
2021/06/03 06:33:30;;;;;;;4.63;2.53;;;22.80;58.20;;;;;;5055920;28;20048;-34
2021/06/03 06:35:56;;;;;;;3.53;2.67;;;22.00;60.60;;;;;;5056312;28;20056;-36
2021/06/03 06:38:22;;;;;;;3.88;2.67;;;22.10;61.00;;;;;;5054729;28;20056;-35
2021/06/03 06:40:49;;;;;;;4.55;2.97;;;22.50;60.10;;;;;;5056031;28;20053;-35
2021/06/03 06:43:15;;;;;;;5.72;2.67;;;22.50;60.20;;;;;;5055888;28;20100;-36
2021/06/03 06:45:42;;;;;;;4.50;2.92;;;22.90;59.20;;;;;;5054587;28;20112;-36
2021/06/03 06:48:09;;;;;;;6.22;3.85;;;23.00;59.20;;;;;;5055862;28;20058;-36
2021/06/03 06:50:37;;;;;;;3.42;2.85;;;22.90;59.60;;;;;;5055657;28;20017;-36
2021/06/03 06:53:04;;;;;;;3.70;2.92;;;22.90;60.00;;;;;;5054248;28;20036;-36
2021/06/03 06:55:30;;;;;;;5.03;3.58;;;22.80;60.60;;;;;;5055641;28;20021;-35
2021/06/03 06:57:56;;;;;;;4.80;3.00;;;23.20;59.80;;;;;;5055848;28;20025;-36
2021/06/03 07:00:23;;;;;;;7.72;3.40;;;23.20;59.80;;;;;;5056000;28;20032;-35
2021/06/03 07:02:49;;;;;;;6.53;2.92;;;23.00;60.50;;;;;;5055518;28;20040;-34
2021/06/03 07:05:15;;;;;;;5.72;3.53;;;23.10;60.50;;;;;;5055442;28;20464;-34
2021/06/03 07:07:42;;;;;;;4.82;3.33;;;23.30;60.20;;;;;;5055793;28;20104;-36
2021/06/03 07:10:08;;;;;;;5.47;3.10;;;23.10;60.40;;;;;;5055364;28;20036;-35
2021/06/03 07:12:35;;;;;;;6.65;4.10;;;23.10;61.10;;;;;;5055429;28;20090;-38
2021/06/03 07:15:03;;;;;;;6.95;3.53;;;23.00;61.20;;;;;;5055432;28;20048;-36
2021/06/03 07:17:29;;;;;;;6.20;3.50;;;22.80;61.80;;;;;;5055344;28;20112;-35
2021/06/03 07:19:54;;;;;;;7.70;3.40;;;23.00;61.90;;;;;;5055234;28;20048;-36
2021/06/03 07:22:20;;;;;;;7.70;4.78;;;22.70;62.80;;;;;;5055331;28;20017;-35
2021/06/03 07:24:46;;;;;;;5.78;3.60;;;23.00;61.60;;;;;;5055064;28;20017;-36
2021/06/03 07:27:12;;;;;;;7.30;3.10;;;23.50;60.00;;;;;;5055050;28;20031;-36
2021/06/03 07:29:39;;;;;;;11.57;3.42;;;24.40;57.20;;;;;;5053913;28;20029;-36
2021/06/03 07:32:06;;;;;;;3.95;3.17;;;25.30;55.10;;;;;;5053472;28;20412;-37
2021/06/03 07:34:32;;;;;;;7.85;3.00;;;25.50;53.80;;;;;;5055073;28;20029;-36
2021/06/03 07:36:58;;;;;;;8.25;3.85;;;25.70;53.40;;;;;;5055174;28;20374;-35
2021/06/03 07:39:23;;;;;;;5.72;3.58;;;24.80;55.50;;;;;;5055200;28;20086;-37
2021/06/03 07:41:50;;;;;;;8.43;3.83;;;24.60;56.30;;;;;;5055024;28;20025;-36
2021/06/03 07:44:17;;;;;;;4.82;3.90;;;24.50;57.50;;;;;;5054997;28;20029;-36
2021/06/03 07:46:43;;;;;;;7.85;4.38;;;24.40;57.00;;;;;;5053853;28;20029;-36
2021/06/03 07:49:13;;;;;;;5.28;3.65;;;24.30;58.00;;;;;;5055289;28;20028;-36
2021/06/03 07:51:40;;;;;;;9.30;3.92;;;24.40;57.60;;;;;;5055080;28;20040;-36
2021/06/03 07:54:06;;;;;;;9.57;3.35;;;24.10;59.10;;;;;;5054843;28;20033;-36
2021/06/03 07:56:34;;;;;;;7.18;3.65;;;25.00;55.90;;;;;;5053415;28;20499;-36
2021/06/03 07:59:00;;;;;;;4.47;3.55;;;25.90;53.50;;;;;;5054503;28;20060;-37
2021/06/03 08:01:25;;;;;;;4.72;3.58;;;26.30;52.80;;;;;;5054415;28;20044;-36
2021/06/03 08:03:51;;;;;;;7.43;3.42;;;26.20;52.20;;;;;;5053448;28;20380;-35
2021/06/03 08:06:17;;;;;;;6.75;3.42;;;26.10;51.70;;;;;;5054339;28;20035;-36
2021/06/03 08:08:42;;;;;;;6.47;3.80;;;25.90;52.50;;;;;;5054779;28;20025;-37
2021/06/03 08:11:08;;;;;;;7.13;3.60;;;25.80;53.30;;;;;;5054258;28;20039;-36
2021/06/03 08:13:35;;;;;;;5.18;4.68;;;25.50;54.10;;;;;;5054026;28;20029;-34
2021/06/03 08:16:01;;;;;;;4.55;3.50;;;25.10;55.70;;;;;;5054046;28;20021;-44
2021/06/03 08:18:27;;;;;;;5.82;4.13;;;25.00;55.80;;;;;;5052588;28;20029;-35
2021/06/03 08:20:57;;;;;;;5.28;3.97;;;24.60;57.30;;;;;;5053951;28;20071;-36
2021/06/03 08:23:24;;;;;;;5.78;3.58;;;24.60;57.50;;;;;;5053816;28;20154;-35
2021/06/03 08:25:50;;;;;;;8.85;4.15;;;24.40;58.20;;;;;;5053919;28;20025;-35
2021/06/03 08:28:17;;;;;;;11.25;5.13;;;23.60;60.90;;;;;;5053920;28;20070;-36
2021/06/03 08:30:44;;;;;;;6.72;2.97;;;25.20;56.30;;;;;;5053720;28;20031;-36
2021/06/03 08:33:10;;;;;;;5.65;3.95;;;25.80;54.00;;;;;;5052165;28;20135;-37
2021/06/03 08:35:37;;;;;;;4.18;3.35;;;25.70;54.30;;;;;;5053641;28;20461;-36
2021/06/03 08:38:06;;;;;;;5.70;3.40;;;25.80;53.20;;;;;;5053561;28;20457;-36
2021/06/03 08:40:38;;;;;;;5.90;3.38;;;25.40;54.80;;;;;;5058196;28;20433;-37
2021/06/03 08:43:05;;;;;;;7.15;3.90;;;25.80;53.50;;;;;;5053982;28;20033;-35
2021/06/03 08:45:33;;;;;;;7.53;3.50;;;26.20;52.30;;;;;;5054590;28;20438;-35
2021/06/03 08:47:59;;;;;;;4.90;3.22;;;25.80;53.20;;;;;;5053513;28;20078;-35
2021/06/03 08:50:28;;;;;;;4.20;3.40;;;25.70;54.00;;;;;;5053895;28;20033;-36
2021/06/03 08:52:55;;;;;;;5.43;3.83;;;25.60;54.50;;;;;;5053919;28;20086;-36
2021/06/03 08:58:08;;;;;;;3.95;3.17;;;24.80;56.70;;;;;;5054005;28;20409;-36
2021/06/03 09:00:35;;;;;;;6.50;3.63;;;24.60;57.80;;;;;;5053414;28;20021;-35
2021/06/03 09:03:02;;;;;;;6.85;3.65;;;24.90;57.30;;;;;;5053548;28;20035;-36
2021/06/03 09:05:28;;;;;;;6.25;3.58;;;25.40;55.70;;;;;;5053839;28;20048;-37
2021/06/03 09:07:54;;;;;;;7.38;3.40;;;25.70;55.10;;;;;;5051956;28;20020;-36
2021/06/03 09:10:29;;;;;;;5.93;3.30;;;25.50;56.10;;;;;;5053695;28;20082;-36
2021/06/03 09:13:12;;;;;;;4.95;4.10;;;25.30;55.90;;;;;;5053467;28;20052;-36
2021/06/03 09:15:41;;;;;;;7.57;4.22;;;25.50;55.70;;;;;;5051827;28;20469;-36
2021/06/03 09:18:09;;;;;;;5.35;4.07;;;25.00;57.30;;;;;;5053125;28;20032;-37
2021/06/03 09:20:37;;;;;;;8.85;4.82;;;25.60;56.30;;;;;;5053164;28;20021;-35
2021/06/03 09:23:03;;;;;;;7.95;3.70;;;25.70;55.50;;;;;;5053449;28;20025;-35
2021/06/03 09:25:35;;;;;;;8.30;3.72;;;25.80;55.50;;;;;;5053060;28;20021;-35
2021/06/03 09:28:24;;;;;;;5.25;3.83;;;25.30;57.10;;;;;;5051716;28;20032;-35
2021/06/03 09:31:09;;;;;;;6.65;3.80;;;25.00;58.10;;;;;;5051821;28;20075;-36
2021/06/03 09:33:47;;;;;;;4.70;4.10;;;25.20;57.30;;;;;;5052835;28;20488;-37
2021/06/03 09:36:16;;;;;;;5.47;3.95;;;25.30;56.60;;;;;;5053405;28;20465;-36
2021/06/03 09:38:55;;;;;;;6.15;3.95;;;25.20;57.10;;;;;;5053119;28;20398;-36
2021/06/03 09:41:22;;;;;;;8.75;4.22;;;25.10;57.90;;;;;;5053434;28;20376;-34
2021/06/03 09:43:48;;;;;;;4.28;3.88;;;25.20;57.40;;;;;;5054019;28;20029;-37
2021/06/03 09:46:16;;;;;;;7.28;4.68;;;24.60;59.60;;;;;;5052862;28;20063;-35
2021/06/03 09:48:45;;;;;;;4.70;3.63;;;24.80;59.10;;;;;;5053169;28;20435;-35
2021/06/03 09:51:17;;;;;;;5.93;3.83;;;24.70;59.60;;;;;;5056832;28;20063;-37
2021/06/03 09:54:01;;;;;;;6.25;3.78;;;24.80;59.50;;;;;;5056726;28;20461;-35
2021/06/03 09:56:42;;;;;;;6.47;4.68;;;24.80;58.80;;;;;;5057126;28;20079;-35
2021/06/03 09:59:15;;;;;;;6.93;4.70;;;24.80;59.30;;;;;;5056962;28;20033;-37
2021/06/03 10:01:50;;;;;;;6.63;4.35;;;24.70;60.10;;;;;;5056957;28;20024;-35
2021/06/03 10:04:21;;;;;;;8.57;4.15;;;24.70;60.40;;;;;;5055412;28;20392;-36
2021/06/03 10:07:14;;;;;;;5.95;4.75;;;24.80;60.40;;;;;;5055193;28;20388;-36
2021/06/03 10:10:00;;;;;;;6.22;4.18;;;25.10;59.10;;;;;;5055830;28;20037;-36
2021/06/03 10:12:27;;;;;;;6.18;4.82;;;25.60;57.60;;;;;;5056562;28;20041;-35
2021/06/03 10:15:07;;;;;;;7.63;4.53;;;24.90;60.00;;;;;;5056648;28;20420;-36
2021/06/03 10:18:01;;;;;;;7.35;5.28;;;24.90;60.20;;;;;;5056499;28;20096;-36
2021/06/03 10:20:53;;;;;;;8.63;5.70;;;25.00;60.00;;;;;;5055866;28;20083;-36
2021/06/03 10:23:25;;;;;;;12.00;5.78;;;25.50;58.30;;;;;;5055919;28;20037;-35
2021/06/03 10:25:56;;;;;;;6.90;4.70;;;25.30;58.70;;;;;;5056740;28;20025;-36
2021/06/03 10:28:24;;;;;;;5.80;5.10;;;25.20;59.10;;;;;;5056562;28;20040;-35
2021/06/03 10:30:52;;;;;;;10.10;4.93;;;25.10;60.10;;;;;;5055086;28;20079;-37
2021/06/03 10:33:21;;;;;;;7.80;4.63;;;25.60;58.60;;;;;;5056521;28;20045;-37
2021/06/03 10:35:50;;;;;;;7.22;3.90;;;26.30;55.40;;;;;;5056406;28;20124;-39
2021/06/03 10:38:19;;;;;;;8.25;6.07;;;25.80;57.60;;;;;;5056432;28;20013;-35
2021/06/03 10:40:47;;;;;;;9.43;4.68;;;26.50;55.80;;;;;;5055742;28;20013;-37
2021/06/03 10:43:13;;;;;;;7.35;4.68;;;27.20;54.60;;;;;;5056548;28;20111;-36
2021/06/03 10:45:41;;;;;;;6.88;4.10;;;26.80;54.60;;;;;;5055785;28;20432;-36
2021/06/03 10:48:07;;;;;;;6.13;4.25;;;26.00;57.00;;;;;;5054921;28;20040;-38
2021/06/03 10:50:48;;;;;;;7.95;4.43;;;26.00;57.70;;;;;;5037439;28;20074;-36
2021/06/03 10:53:18;;;;;;;6.53;4.22;;;27.00;55.40;;;;;;5054325;28;20029;-36
2021/06/03 10:55:50;;;;;;;6.70;4.45;;;26.90;54.00;;;;;;5055653;28;20022;-35
2021/06/03 10:58:17;;;;;;;5.85;4.25;;;26.40;55.80;;;;;;5054690;28;20025;-35
2021/06/03 11:00:46;;;;;;;3.90;3.47;;;27.20;54.40;;;;;;5054971;28;20025;-37
2021/06/03 11:03:19;;;;;;;8.52;4.35;;;26.80;54.20;;;;;;5056292;28;20469;-36
2021/06/03 11:05:49;;;;;;;5.50;3.70;;;26.50;54.00;;;;;;5056042;28;20070;-35
2021/06/03 11:09:04;;;;;;;5.47;4.00;;;26.70;54.30;;;;;;5054631;28;20032;-36
2021/06/03 11:11:35;;;;;;;5.32;3.50;;;26.30;55.30;;;;;;5055470;28;20044;-36
2021/06/03 11:14:03;;;;;;;6.68;4.15;;;27.30;53.00;;;;;;5055247;28;20389;-37
2021/06/03 11:16:35;;;;;;;6.25;4.10;;;27.30;52.80;;;;;;5055760;28;20377;-37
2021/06/03 11:19:01;;;;;;;10.13;4.55;;;27.50;52.70;;;;;;5054128;28;20021;-36
2021/06/03 11:21:33;;;;;;;7.30;4.30;;;27.30;52.90;;;;;;5054678;28;20028;-36
2021/06/03 11:24:05;;;;;;;8.40;5.35;;;27.10;53.60;;;;;;5055151;28;20075;-37
2021/06/03 11:26:40;;;;;;;5.20;4.10;;;26.70;54.20;;;;;;5054550;28;20033;-38
2021/06/03 11:29:27;;;;;;;4.05;3.65;;;27.00;53.70;;;;;;5055278;28;20021;-37
2021/06/03 11:32:04;;;;;;;6.22;5.05;;;26.80;54.50;;;;;;5054385;28;20067;-36
2021/06/03 11:34:39;;;;;;;6.53;3.80;;;26.30;55.60;;;;;;5055189;28;20028;-35
2021/06/03 11:37:09;;;;;;;6.75;3.50;;;26.40;55.70;;;;;;5054905;28;20045;-35
2021/06/03 11:39:58;;;;;;;6.35;4.28;;;26.00;56.00;;;;;;5055140;28;20032;-35
2021/06/03 11:42:38;;;;;;;12.60;4.22;;;26.00;55.40;;;;;;5054633;28;20041;-34
2021/06/03 11:45:17;;;;;;;6.07;4.20;;;26.20;55.90;;;;;;5054627;28;20047;-37
2021/06/03 11:47:43;;;;;;;7.75;4.60;;;25.90;56.60;;;;;;5053687;28;20029;-36
2021/06/03 11:50:15;;;;;;;8.40;4.82;;;26.10;56.30;;;;;;5054664;28;20074;-36
2021/06/03 11:53:01;;;;;;;8.35;4.80;;;26.30;55.40;;;;;;5054086;28;20017;-36
2021/06/03 11:55:26;;;;;;;6.20;4.05;;;26.20;56.30;;;;;;5054348;28;20028;-38
2021/06/03 11:58:08;;;;;;;7.97;4.25;;;26.30;55.40;;;;;;5054499;28;20092;-36
2021/06/03 12:00:39;;;;;;;4.95;3.13;;;26.70;54.30;;;;;;5055148;28;20096;-35
2021/06/03 12:03:24;;;;;;;4.10;2.70;;;26.30;52.90;;;;;;5054615;28;20036;-37
2021/06/03 12:05:52;;;;;;;5.57;3.33;;;26.40;52.60;;;;;;5054231;28;20032;-37
2021/06/03 12:08:36;;;;;;;6.57;3.40;;;26.30;52.60;;;;;;5054165;28;20075;-36
2021/06/03 12:11:05;;;;;;;5.43;3.22;;;26.20;53.10;;;;;;5054473;28;20124;-37
2021/06/03 12:13:31;;;;;;;3.92;3.05;;;26.80;51.80;;;;;;5051633;28;20115;-35
2021/06/03 12:15:57;;;;;;;3.50;3.03;;;26.60;51.90;;;;;;5054362;28;20021;-36
2021/06/03 12:18:23;;;;;;;2.47;2.17;;;27.10;48.40;;;;;;5053856;28;20032;-38
2021/06/03 12:20:49;;;;;;;3.53;2.30;;;26.50;50.20;;;;;;5054539;28;20013;-36
2021/06/03 12:23:15;;;;;;;3.15;2.33;;;26.90;49.60;;;;;;5054578;28;20017;-38
2021/06/03 12:25:43;;;;;;;2.40;2.20;;;26.90;48.60;;;;;;5054518;28;20029;-37
2021/06/03 12:28:12;;;;;;;2.55;2.20;;;26.20;50.80;;;;;;5053299;28;20477;-35
2021/06/03 12:30:43;;;;;;;4.82;3.08;;;26.90;48.60;;;;;;5054563;28;20028;-35
2021/06/03 12:33:27;;;;;;;4.65;2.42;;;26.10;50.80;;;;;;5054220;28;20134;-37
2021/06/03 12:36:02;;;;;;;2.55;2.10;;;26.80;49.20;;;;;;5054911;28;20134;-37
2021/06/03 12:38:36;;;;;;;4.60;2.33;;;26.40;49.60;;;;;;5052578;28;20028;-35
2021/06/03 12:41:02;;;;;;;2.85;2.42;;;26.30;49.70;;;;;;5054522;28;20021;-35
2021/06/03 12:43:39;;;;;;;2.65;2.22;;;26.70;49.10;;;;;;5052509;28;20025;-35
2021/06/03 12:46:06;;;;;;;5.28;2.50;;;28.00;46.40;;;;;;5054535;28;20032;-39
2021/06/03 12:48:32;;;;;;;3.17;2.30;;;28.70;44.50;;;;;;5055175;28;20125;-36
2021/06/03 12:51:00;;;;;;;9.07;3.85;;;28.20;45.30;;;;;;5054131;28;20028;-35
2021/06/03 12:53:26;;;;;;;3.33;2.53;;;28.10;46.20;;;;;;5053670;28;20024;-36
2021/06/03 12:55:52;;;;;;;2.75;2.50;;;27.80;46.70;;;;;;5054294;28;20020;-37